Terminal Aerodrome Forecast
Issued by NWS

Home | Current Version | Previous Version | Text Only | Print | Product List | Glossary On
Versions: 1 2 3 4 5 6 7 8 9 10 11 12
097
FTUS44 KLUB 252003 AAA
TAFCDS
TAF AMD
KCDS 252003Z 2520/2618 31015KT P6SM SCT110 BKN250
     FM260200 34017KT P6SM VCSH BKN070 BKN150
     FM261200 35014KT P6SM BKN015=

USA.gov is the U.S. government's official web portal to all federal, state and local government web resources and services.